Time;durP1;ratioP1;P1;durP2;ratioP2;P2;SDS_P1;SDS_P2;PMS_P1;PMS_P2;Temp;Humidity;BMP_temperature;BMP_pressure;BME280_temperature;BME280_humidity;BME280_pressure;Samples;Min_cycle;Max_cycle;Signal;HPM_P1;HPM_P2
2023/02/22 00:00:43;;;;;;;17.50;9.75;;;;;;;7.10;100.00;98566.59;4196289;28;20045;-78
2023/02/22 00:02:48;;;;;;;20.17;10.47;;;;;;;7.07;100.00;98559.84;4193704;28;20434;-78
2023/02/22 00:04:48;;;;;;;13.57;7.70;;;;;;;7.08;100.00;98563.41;4193130;28;20247;-78
2023/02/22 00:06:48;;;;;;;22.70;11.95;;;;;;;7.04;100.00;98563.31;4191337;28;20357;-78
2023/02/22 00:08:49;;;;;;;19.17;11.18;;;;;;;6.99;100.00;98560.81;4191136;28;20044;-78
2023/02/22 00:10:50;;;;;;;22.25;12.55;;;;;;;6.90;100.00;98547.22;4196332;28;20049;-78
2023/02/22 00:12:52;;;;;;;14.70;8.52;;;;;;;6.87;100.00;98549.88;4194528;28;20036;-78
2023/02/22 00:14:52;;;;;;;13.57;7.20;;;;;;;6.76;100.00;98544.09;4189878;28;20045;-78
2023/02/22 00:16:58;;;;;;;13.23;7.03;;;;;;;6.72;100.00;98537.69;4193251;28;20274;-78
2023/02/22 00:18:58;;;;;;;16.25;8.10;;;;;;;6.69;100.00;98538.38;4191830;28;20482;-78
2023/02/22 00:20:59;;;;;;;17.63;9.63;;;;;;;6.65;100.00;98545.75;4191310;28;20044;-78
2023/02/22 00:23:00;;;;;;;15.85;8.55;;;;;;;6.59;100.00;98533.41;4191836;28;20117;-78
2023/02/22 00:25:00;;;;;;;14.23;7.72;;;;;;;6.54;100.00;98533.63;4199737;28;20040;-78
2023/02/22 00:27:02;;;;;;;13.50;6.35;;;;;;;6.51;100.00;98534.34;4189123;28;20350;-78
2023/02/22 00:29:02;;;;;;;11.63;6.03;;;;;;;6.45;100.00;98536.53;4191291;28;20040;-78
2023/02/22 00:31:05;;;;;;;12.18;6.95;;;;;;;6.41;100.00;98541.13;4191184;28;20057;-78
2023/02/22 00:33:05;;;;;;;15.80;6.60;;;;;;;6.36;100.00;98527.63;4189892;28;20492;-78
2023/02/22 00:35:07;;;;;;;9.77;5.75;;;;;;;6.30;100.00;98523.56;4190297;28;20053;-78
2023/02/22 00:37:09;;;;;;;11.17;6.53;;;;;;;6.23;100.00;98529.63;4194313;28;20033;-78
2023/02/22 00:39:10;;;;;;;10.63;6.03;;;;;;;6.19;100.00;98520.47;4190551;28;20283;-78
2023/02/22 00:41:11;;;;;;;8.73;5.57;;;;;;;6.13;100.00;98522.69;4190510;28;20396;-78
2023/02/22 00:43:12;;;;;;;10.90;6.10;;;;;;;6.10;100.00;98522.56;4197480;28;20632;-78
2023/02/22 00:45:15;;;;;;;12.32;5.95;;;;;;;6.07;100.00;98524.06;4191492;28;20044;-78
2023/02/22 00:47:15;;;;;;;11.38;6.07;;;;;;;6.04;100.00;98518.44;4190865;28;20079;-78
2023/02/22 00:49:16;;;;;;;11.82;5.85;;;;;;;5.99;100.00;98521.44;4190528;28;20052;-78
2023/02/22 00:51:16;;;;;;;14.05;6.32;;;;;;;5.90;100.00;98521.56;4191045;28;20414;-78
2023/02/22 00:53:16;;;;;;;11.05;6.20;;;;;;;5.82;100.00;98519.72;4190297;28;20072;-78
2023/02/22 00:55:28;;;;;;;12.50;6.10;;;;;;;5.81;100.00;98520.88;4190199;28;20071;-78
2023/02/22 00:57:28;;;;;;;10.45;5.47;;;;;;;5.77;100.00;98526.25;4193568;28;20503;-78
2023/02/22 00:59:29;;;;;;;11.93;5.47;;;;;;;5.71;100.00;98508.44;4190238;28;20102;-78
2023/02/22 01:01:30;;;;;;;9.18;5.28;;;;;;;5.66;100.00;98521.59;4191039;28;20048;-78
2023/02/22 01:03:31;;;;;;;10.18;6.13;;;;;;;5.66;100.00;98527.88;4189655;28;20557;-78
2023/02/22 01:05:32;;;;;;;10.02;5.70;;;;;;;5.60;100.00;98515.50;4192522;28;20036;-78
2023/02/22 01:07:32;;;;;;;15.15;6.53;;;;;;;5.50;100.00;98515.97;4190539;28;20447;-78
2023/02/22 01:09:33;;;;;;;13.05;6.53;;;;;;;5.49;100.00;98523.41;4190301;28;20045;-77
2023/02/22 01:11:34;;;;;;;11.60;6.38;;;;;;;5.28;100.00;98520.75;4189451;28;20052;-78
2023/02/22 01:13:34;;;;;;;11.98;7.00;;;;;;;5.16;100.00;98511.75;4189591;28;20052;-78
2023/02/22 01:15:36;;;;;;;11.70;6.57;;;;;;;5.04;100.00;98527.03;4193509;28;20048;-77
2023/02/22 01:17:38;;;;;;;13.40;6.57;;;;;;;5.00;100.00;98520.63;4190113;28;20468;-78
2023/02/22 01:19:41;;;;;;;11.57;6.32;;;;;;;4.94;100.00;98511.00;4190575;28;20032;-78
2023/02/22 01:21:42;;;;;;;12.10;5.90;;;;;;;4.91;100.00;98514.44;4190037;28;20128;-78
2023/02/22 01:23:45;;;;;;;10.32;5.30;;;;;;;4.87;100.00;98509.97;4189676;28;20374;-78
2023/02/22 01:25:46;;;;;;;13.00;6.30;;;;;;;4.82;100.00;98508.25;4188553;28;20044;-77
2023/02/22 01:27:47;;;;;;;10.88;6.10;;;;;;;4.86;100.00;98511.91;4190594;28;20873;-78
2023/02/22 01:29:49;;;;;;;10.45;5.93;;;;;;;4.84;100.00;98505.19;4189251;28;20051;-78
2023/02/22 01:31:53;;;;;;;12.98;5.80;;;;;;;4.79;100.00;98503.44;4189430;28;20617;-78
2023/02/22 01:33:53;;;;;;;8.73;5.30;;;;;;;4.83;100.00;98506.31;4190349;28;20040;-78
2023/02/22 01:35:53;;;;;;;8.43;4.95;;;;;;;4.78;100.00;98501.84;4195336;28;20511;-77
2023/02/22 01:37:56;;;;;;;9.15;5.47;;;;;;;4.71;100.00;98510.59;4189669;28;20139;-77
2023/02/22 01:39:57;;;;;;;8.98;4.88;;;;;;;4.69;100.00;98495.66;4190246;28;20408;-77
2023/02/22 01:41:59;;;;;;;11.85;5.45;;;;;;;4.65;100.00;98505.69;4190374;28;20485;-77
2023/02/22 01:44:20;;;;;;;10.30;5.95;;;;;;;4.58;100.00;98498.03;4189153;28;20052;-78
2023/02/22 01:46:25;;;;;;;12.05;5.72;;;;;;;4.55;100.00;98503.38;4192300;28;20040;-78
2023/02/22 01:49:05;;;;;;;11.45;5.82;;;;;;;4.50;100.00;98494.22;4192894;28;20148;-77
2023/02/22 01:51:22;;;;;;;8.38;5.25;;;;;;;4.46;100.00;98495.22;4193402;28;20411;-77
2023/02/22 01:53:31;;;;;;;10.57;5.90;;;;;;;4.41;100.00;98501.75;4192571;28;20048;-78
2023/02/22 01:55:34;;;;;;;9.32;5.65;;;;;;;4.36;100.00;98487.44;4198732;28;20048;-77
2023/02/22 01:57:36;;;;;;;12.13;6.45;;;;;;;4.32;100.00;98490.06;4195441;28;20056;-77
2023/02/22 01:59:42;;;;;;;10.32;5.65;;;;;;;4.26;100.00;98498.81;4193431;28;20478;-77
2023/02/22 02:01:43;;;;;;;8.93;5.15;;;;;;;4.26;100.00;98491.41;4192312;28;20105;-77
2023/02/22 02:03:44;;;;;;;9.93;5.45;;;;;;;4.28;100.00;98494.59;4192665;28;20137;-77
2023/02/22 02:05:45;;;;;;;10.40;5.90;;;;;;;4.27;100.00;98489.47;4197915;28;20439;-77
2023/02/22 02:07:45;;;;;;;9.05;5.20;;;;;;;4.20;100.00;98479.03;4192435;28;20737;-77
2023/02/22 02:10:00;;;;;;;11.02;5.63;;;;;;;4.10;100.00;98483.00;4192581;28;20280;-77
2023/02/22 02:12:03;;;;;;;9.35;4.88;;;;;;;4.00;100.00;98485.34;4199211;28;20249;-77
2023/02/22 02:14:04;;;;;;;8.85;5.07;;;;;;;3.88;100.00;98480.59;4199492;28;20057;-77
2023/02/22 02:16:04;;;;;;;9.15;5.20;;;;;;;3.79;100.00;98479.84;4196304;28;20050;-77
2023/02/22 02:18:08;;;;;;;11.13;5.38;;;;;;;3.84;100.00;98494.16;4198232;28;20364;-77
2023/02/22 02:20:25;;;;;;;10.27;5.57;;;;;;;3.87;100.00;98498.94;4198569;28;20455;-77
2023/02/22 02:22:49;;;;;;;10.93;5.80;;;;;;;3.91;100.00;98491.69;4198787;28;20174;-77
2023/02/22 02:25:17;;;;;;;9.40;5.13;;;;;;;3.97;100.00;98488.72;4195948;28;20060;-77
2023/02/22 02:27:30;;;;;;;12.05;5.90;;;;;;;3.97;100.00;98486.00;4192503;28;20056;-77
2023/02/22 02:29:58;;;;;;;12.73;6.03;;;;;;;3.99;100.00;98484.56;4196730;28;20063;-77
2023/02/22 02:32:26;;;;;;;13.10;5.38;;;;;;;4.05;100.00;98483.19;4192791;28;20037;-77
2023/02/22 02:34:49;;;;;;;14.50;6.03;;;;;;;4.04;100.00;98478.06;4188708;28;20102;-77
2023/02/22 02:37:25;;;;;;;9.90;5.40;;;;;;;4.11;100.00;98481.84;4191935;28;20063;-77
2023/02/22 02:39:34;;;;;;;11.25;5.05;;;;;;;4.11;100.00;98470.91;4189762;28;20127;-77
2023/02/22 02:41:39;;;;;;;8.50;5.00;;;;;;;4.08;100.00;98471.59;4192698;28;20387;-77
2023/02/22 02:43:39;;;;;;;10.45;5.45;;;;;;;4.04;100.00;98465.16;4197058;28;20079;-78
2023/02/22 02:45:54;;;;;;;9.50;4.85;;;;;;;4.06;100.00;98473.88;4193981;28;20051;-77
2023/02/22 02:47:58;;;;;;;10.23;5.65;;;;;;;4.10;100.00;98471.25;4192733;28;20048;-78
2023/02/22 02:50:13;;;;;;;11.13;6.43;;;;;;;4.11;100.00;98464.63;4193207;28;20063;-77
2023/02/22 02:52:15;;;;;;;10.98;5.90;;;;;;;4.10;100.00;98465.78;4198779;28;20370;-78
2023/02/22 02:54:16;;;;;;;8.75;5.25;;;;;;;4.12;100.00;98466.22;4193630;28;20287;-77
2023/02/22 02:56:17;;;;;;;9.30;5.20;;;;;;;4.09;100.00;98467.72;4191291;28;20032;-77
2023/02/22 02:58:21;;;;;;;9.05;5.25;;;;;;;4.08;100.00;98463.38;4190407;28;20037;-77
2023/02/22 03:00:27;;;;;;;12.13;5.60;;;;;;;4.03;100.00;98458.09;4192624;28;20123;-77
2023/02/22 03:03:06;;;;;;;8.82;5.38;;;;;;;4.01;100.00;98459.56;4192453;28;20080;-77
2023/02/22 03:05:15;;;;;;;10.43;5.38;;;;;;;3.99;100.00;98459.13;4191208;28;20430;-77
2023/02/22 03:07:30;;;;;;;9.98;5.13;;;;;;;4.06;100.00;98459.38;4192662;28;20067;-77
2023/02/22 03:10:06;;;;;;;10.52;5.13;;;;;;;4.08;100.00;98454.34;4192311;28;20045;-77
2023/02/22 03:12:13;;;;;;;8.60;5.00;;;;;;;4.09;100.00;98450.47;4191550;28;20068;-77
2023/02/22 03:14:33;;;;;;;11.45;5.50;;;;;;;4.15;100.00;98446.41;4196466;28;20063;-77
2023/02/22 03:16:55;;;;;;;9.30;4.80;;;;;;;4.21;100.00;98448.56;4195671;28;20041;-77
2023/02/22 03:19:05;;;;;;;12.68;6.07;;;;;;;4.30;100.00;98442.22;4190718;28;20051;-77
2023/02/22 03:21:32;;;;;;;17.55;6.40;;;;;;;4.29;100.00;98443.34;4191476;28;20400;-77
2023/02/22 03:24:23;;;;;;;12.30;5.78;;;;;;;4.29;100.00;98444.16;4196518;28;20044;-77
2023/02/22 03:26:33;;;;;;;11.55;5.85;;;;;;;4.27;100.00;98446.44;4156565;28;20130;-77
2023/02/22 03:28:36;;;;;;;11.27;5.80;;;;;;;4.30;100.00;98443.00;4191796;28;20319;-77
2023/02/22 03:30:41;;;;;;;11.23;5.72;;;;;;;4.32;100.00;98435.28;4192090;28;20420;-77
2023/02/22 03:32:45;;;;;;;12.73;6.38;;;;;;;4.36;100.00;98444.41;4190776;28;20487;-77
2023/02/22 03:35:06;;;;;;;11.55;5.95;;;;;;;4.40;100.00;98445.34;4194984;28;20044;-77
2023/02/22 03:37:13;;;;;;;10.40;5.90;;;;;;;4.38;100.00;98444.88;4192354;28;20040;-77
2023/02/22 03:39:17;;;;;;;9.90;5.93;;;;;;;4.39;100.00;98448.44;4191805;28;20040;-77
2023/02/22 03:41:22;;;;;;;11.82;6.00;;;;;;;4.41;100.00;98449.69;4191789;28;20052;-77
2023/02/22 03:43:33;;;;;;;10.25;5.47;;;;;;;4.44;100.00;98439.97;4190815;28;20147;-77
2023/02/22 03:45:36;;;;;;;9.23;5.07;;;;;;;4.50;100.00;98433.97;4191231;28;20043;-77
2023/02/22 03:47:44;;;;;;;11.13;5.53;;;;;;;4.51;100.00;98432.81;4191674;28;20047;-77
2023/02/22 03:49:51;;;;;;;12.02;6.20;;;;;;;4.51;100.00;98426.53;4190897;28;20049;-77
2023/02/22 03:51:52;;;;;;;11.88;5.35;;;;;;;4.48;100.00;98425.28;4191109;28;20056;-77
2023/02/22 03:53:53;;;;;;;11.65;5.43;;;;;;;4.45;100.00;98428.69;4191545;28;20091;-77
2023/02/22 03:55:57;;;;;;;10.20;5.38;;;;;;;4.43;100.00;98435.66;4192987;28;20769;-77
2023/02/22 03:58:00;;;;;;;9.20;5.00;;;;;;;4.42;100.00;98428.56;4197151;28;20094;-77
2023/02/22 04:00:05;;;;;;;11.90;5.45;;;;;;;4.43;100.00;98427.44;4194500;28;20037;-77
2023/02/22 04:02:06;;;;;;;8.32;4.65;;;;;;;4.42;100.00;98423.09;4191017;28;20048;-77
2023/02/22 04:04:06;;;;;;;11.57;5.18;;;;;;;4.38;100.00;98417.47;4190127;28;20031;-77
2023/02/22 04:06:08;;;;;;;12.05;5.85;;;;;;;4.35;100.00;98425.56;4191559;28;20549;-77
2023/02/22 04:08:08;;;;;;;10.30;5.38;;;;;;;4.30;100.00;98428.53;4191598;28;20025;-77
2023/02/22 04:10:10;;;;;;;12.00;4.85;;;;;;;4.23;100.00;98426.34;4190344;28;20035;-77
2023/02/22 04:12:10;;;;;;;9.38;5.30;;;;;;;4.18;100.00;98419.13;4190026;28;20035;-77
2023/02/22 04:14:11;;;;;;;9.73;5.35;;;;;;;4.14;100.00;98425.66;4189590;28;20016;-77
2023/02/22 04:16:12;;;;;;;7.47;4.60;;;;;;;4.10;100.00;98413.75;4198593;28;20028;-77
2023/02/22 04:18:13;;;;;;;9.32;5.18;;;;;;;4.09;100.00;98421.16;4193382;28;20345;-77
2023/02/22 04:20:16;;;;;;;13.13;6.07;;;;;;;4.08;100.00;98422.31;4193862;28;20497;-77
2023/02/22 04:22:17;;;;;;;8.98;5.40;;;;;;;4.05;100.00;98417.47;4190047;28;20407;-77
2023/02/22 04:24:18;;;;;;;10.00;6.07;;;;;;;4.02;100.00;98420.09;4183302;28;20096;-77
2023/02/22 04:26:18;;;;;;;9.15;4.88;;;;;;;3.99;100.00;98415.31;4189900;28;20032;-77
2023/02/22 04:28:18;;;;;;;11.50;5.60;;;;;;;3.95;100.00;98415.16;4187620;28;20051;-77
2023/02/22 04:30:19;;;;;;;8.80;5.03;;;;;;;3.97;100.00;98414.81;4188945;28;20033;-77
2023/02/22 04:32:20;;;;;;;11.90;4.82;;;;;;;3.95;100.00;98421.44;4188654;28;20020;-77
2023/02/22 04:34:20;;;;;;;8.05;4.60;;;;;;;3.93;100.00;98415.50;4188258;28;20135;-77
2023/02/22 04:36:21;;;;;;;10.63;5.70;;;;;;;3.90;100.00;98418.94;4191416;28;20107;-77
2023/02/22 04:38:21;;;;;;;9.85;5.38;;;;;;;3.83;100.00;98404.97;4187412;28;20059;-77
2023/02/22 04:40:21;;;;;;;8.55;5.03;;;;;;;3.78;100.00;98416.13;4192356;28;20541;-77
2023/02/22 04:42:21;;;;;;;10.05;5.18;;;;;;;3.69;100.00;98409.91;4190209;28;20423;-77
2023/02/22 04:44:22;;;;;;;9.00;4.68;;;;;;;3.61;100.00;98402.56;4183849;28;20419;-77
2023/02/22 04:46:22;;;;;;;12.73;6.15;;;;;;;3.53;100.00;98400.72;4182396;28;20051;-77
2023/02/22 04:48:22;;;;;;;11.15;6.15;;;;;;;3.51;100.00;98405.72;4184022;28;20044;-77
2023/02/22 04:50:23;;;;;;;8.88;4.97;;;;;;;3.46;100.00;98405.91;4190557;28;20048;-77
2023/02/22 04:52:23;;;;;;;10.38;5.03;;;;;;;3.43;100.00;98401.91;4189524;28;20037;-77
2023/02/22 04:54:23;;;;;;;9.82;5.00;;;;;;;3.39;100.00;98403.69;4194710;28;20075;-77
2023/02/22 04:56:24;;;;;;;10.48;5.30;;;;;;;3.31;100.00;98404.56;4194287;28;20069;-77
2023/02/22 04:58:24;;;;;;;9.50;4.82;;;;;;;3.25;100.00;98403.16;4192862;28;20050;-77
2023/02/22 05:00:25;;;;;;;10.23;4.75;;;;;;;3.20;100.00;98400.63;4192672;28;20219;-77
2023/02/22 05:02:25;;;;;;;10.63;5.95;;;;;;;3.21;100.00;98399.47;4192470;28;20051;-77
2023/02/22 05:04:25;;;;;;;11.30;5.95;;;;;;;3.17;100.00;98391.16;4188518;28;20048;-77
2023/02/22 05:06:26;;;;;;;11.88;5.57;;;;;;;3.16;100.00;98394.22;4189915;28;20135;-77
2023/02/22 05:08:26;;;;;;;11.18;6.47;;;;;;;3.10;100.00;98383.47;4195167;28;20130;-77
2023/02/22 05:10:26;;;;;;;9.02;5.68;;;;;;;3.07;100.00;98399.75;4193404;28;20179;-77
2023/02/22 05:12:27;;;;;;;9.40;4.97;;;;;;;2.93;100.00;98378.09;4184969;28;20587;-77
2023/02/22 05:14:28;;;;;;;16.98;7.22;;;;;;;2.91;100.00;98387.78;4188654;28;20135;-77
2023/02/22 05:16:28;;;;;;;11.60;6.28;;;;;;;2.86;100.00;98394.22;4185886;28;20456;-77
2023/02/22 05:18:29;;;;;;;12.38;6.10;;;;;;;2.82;100.00;98379.63;4189611;28;20029;-77
2023/02/22 05:20:32;;;;;;;13.70;7.35;;;;;;;2.79;100.00;98396.66;4182837;28;20037;-77
2023/02/22 05:22:33;;;;;;;14.80;7.25;;;;;;;2.73;100.00;98389.75;4182391;28;20045;-77
2023/02/22 05:24:34;;;;;;;14.60;7.70;;;;;;;2.68;100.00;98385.28;4190972;28;20361;-77
2023/02/22 05:26:34;;;;;;;16.95;7.20;;;;;;;2.61;100.00;98381.47;4194418;28;20055;-77
2023/02/22 05:28:34;;;;;;;15.85;7.45;;;;;;;2.60;100.00;98379.88;4190945;28;20667;-77
2023/02/22 05:30:38;;;;;;;24.20;7.43;;;;;;;2.49;100.00;98369.31;4190075;28;20062;-77
2023/02/22 05:32:38;;;;;;;16.48;8.02;;;;;;;2.46;100.00;98374.63;4193704;28;20048;-77
2023/02/22 05:34:39;;;;;;;18.02;6.32;;;;;;;2.39;100.00;98377.03;4189873;28;20067;-77
2023/02/22 05:36:39;;;;;;;15.20;5.80;;;;;;;2.35;100.00;98378.84;4187980;28;20056;-77
2023/02/22 05:38:42;;;;;;;12.25;5.85;;;;;;;2.27;100.00;98387.84;4190442;28;20044;-77
2023/02/22 05:40:42;;;;;;;21.38;9.88;;;;;;;2.21;100.00;98387.22;4194702;28;20126;-77
2023/02/22 05:42:43;;;;;;;18.83;10.55;;;;;;;2.22;100.00;98384.16;4189721;28;20487;-77
2023/02/22 05:44:43;;;;;;;19.63;11.48;;;;;;;2.21;100.00;98385.28;4189614;28;20263;-77
2023/02/22 05:46:43;;;;;;;13.00;9.07;;;;;;;2.21;100.00;98389.94;4190353;28;20496;-77
2023/02/22 05:48:44;;;;;;;12.73;7.57;;;;;;;2.18;100.00;98383.22;4190368;28;20133;-77
2023/02/22 05:50:44;;;;;;;10.77;5.40;;;;;;;2.13;100.00;98379.84;4191118;28;20084;-77
2023/02/22 05:52:46;;;;;;;14.55;5.35;;;;;;;2.08;100.00;98380.03;4189951;28;20161;-77
2023/02/22 05:54:46;;;;;;;11.55;5.65;;;;;;;2.04;100.00;98376.34;4192401;28;20112;-77
2023/02/22 05:56:46;;;;;;;9.82;4.65;;;;;;;1.90;100.00;98382.81;4190548;28;20543;-77
2023/02/22 05:58:47;;;;;;;10.30;5.38;;;;;;;1.82;100.00;98378.16;4189418;28;20079;-77
2023/02/22 06:00:47;;;;;;;24.42;5.63;;;;;;;1.75;100.00;98380.56;4189581;28;20080;-76
2023/02/22 06:02:53;;;;;;;38.58;5.30;;;;;;;1.74;100.00;98389.06;4189604;28;20036;-77
2023/02/22 06:04:54;;;;;;;25.05;5.50;;;;;;;1.65;100.00;98383.59;4189726;28;20040;-77
2023/02/22 06:06:54;;;;;;;12.25;4.70;;;;;;;1.63;100.00;98383.13;4103570;28;20055;-77
2023/02/22 06:08:54;;;;;;;15.50;5.05;;;;;;;1.60;100.00;98376.41;4194823;28;20120;-76
2023/02/22 06:10:55;;;;;;;7.68;4.60;;;;;;;1.59;100.00;98379.47;4190213;28;20087;-76
2023/02/22 06:12:56;;;;;;;10.63;5.53;;;;;;;1.54;100.00;98372.22;4190057;28;20044;-77
2023/02/22 06:14:56;;;;;;;9.40;5.35;;;;;;;1.51;100.00;98381.06;4194431;28;20036;-77
2023/02/22 06:16:58;;;;;;;17.80;6.72;;;;;;;1.52;100.00;98382.66;4194810;28;20040;-77
2023/02/22 06:18:58;;;;;;;13.50;7.07;;;;;;;1.57;100.00;98381.69;4189784;28;20048;-76
2023/02/22 06:20:59;;;;;;;13.68;6.38;;;;;;;1.57;100.00;98377.06;4193979;28;20036;-77
2023/02/22 06:23:00;;;;;;;11.35;6.07;;;;;;;1.65;100.00;98378.16;4192399;28;20077;-77
2023/02/22 06:25:05;;;;;;;11.40;5.90;;;;;;;1.62;100.00;98378.81;4194395;28;20044;-77
2023/02/22 06:27:05;;;;;;;10.77;5.50;;;;;;;1.60;100.00;98381.06;4190766;28;20063;-77
2023/02/22 06:29:05;;;;;;;10.25;4.47;;;;;;;1.56;100.00;98385.53;4190441;28;20029;-76
2023/02/22 06:31:06;;;;;;;12.82;5.28;;;;;;;1.49;100.00;98374.31;4192584;28;20044;-77
2023/02/22 06:33:06;;;;;;;14.18;5.10;;;;;;;1.46;100.00;98383.94;4191311;28;20048;-76
2023/02/22 06:35:07;;;;;;;8.80;4.68;;;;;;;1.43;100.00;98392.75;4193238;28;20052;-76
2023/02/22 06:37:08;;;;;;;11.73;4.80;;;;;;;1.40;100.00;98391.47;4192781;28;20558;-76
2023/02/22 06:39:11;;;;;;;8.93;4.30;;;;;;;1.42;100.00;98385.72;4194517;28;20040;-76
2023/02/22 06:41:11;;;;;;;22.20;6.07;;;;;;;1.40;100.00;98391.47;4193129;28;20036;-76
2023/02/22 06:43:11;;;;;;;10.32;5.03;;;;;;;1.35;100.00;98385.38;4196351;28;20044;-77
2023/02/22 06:45:12;;;;;;;14.45;7.38;;;;;;;1.37;100.00;98392.13;4195193;28;20086;-76
2023/02/22 06:47:12;;;;;;;22.27;10.45;;;;;;;1.37;100.00;98386.66;4193297;28;20067;-76
2023/02/22 06:49:13;;;;;;;25.55;12.45;;;;;;;1.39;100.00;98386.34;4193081;28;20052;-76
2023/02/22 06:51:13;;;;;;;28.80;13.65;;;;;;;1.39;100.00;98389.84;4192830;28;20031;-76
2023/02/22 06:53:14;;;;;;;23.85;9.30;;;;;;;1.45;100.00;98389.72;4195581;28;20135;-76
2023/02/22 06:55:19;;;;;;;17.00;8.43;;;;;;;1.50;100.00;98398.53;4193732;28;20059;-76
2023/02/22 06:57:19;;;;;;;27.17;6.55;;;;;;;1.49;100.00;98405.13;4193114;28;20484;-76
2023/02/22 06:59:20;;;;;;;12.40;5.50;;;;;;;1.49;100.00;98396.13;4193025;28;20051;-76
2023/02/22 07:01:20;;;;;;;8.32;4.15;;;;;;;1.48;100.00;98394.50;4192726;28;20137;-76
2023/02/22 07:03:20;;;;;;;23.85;4.85;;;;;;;1.45;100.00;98400.63;4192292;28;20372;-76
2023/02/22 07:05:22;;;;;;;16.98;5.32;;;;;;;1.48;100.00;98398.03;4195519;28;20044;-76
2023/02/22 07:07:24;;;;;;;19.20;5.95;;;;;;;1.48;100.00;98402.69;4192821;28;20350;-76
2023/02/22 07:09:24;;;;;;;29.77;6.28;;;;;;;1.45;100.00;98403.34;4192815;28;20664;-76
2023/02/22 07:11:24;;;;;;;18.42;5.40;;;;;;;1.43;100.00;98400.94;4192467;28;20384;-76
2023/02/22 07:13:25;;;;;;;14.93;5.18;;;;;;;1.47;100.00;98401.91;4191075;28;20056;-76
2023/02/22 07:15:27;;;;;;;13.57;4.82;;;;;;;1.56;100.00;98402.69;4192003;28;20458;-76
2023/02/22 07:17:27;;;;;;;;;;;;;;;1.58;100.00;98410.59;4192117;28;20101;-76
2023/02/22 07:19:28;;;;;;;14.68;5.30;;;;;;;1.60;100.00;98406.41;4193958;28;20015;-76
2023/02/22 07:21:29;;;;;;;16.90;6.22;;;;;;;1.64;100.00;98401.91;4197451;28;20056;-76
2023/02/22 07:23:30;;;;;;;24.40;5.65;;;;;;;1.71;100.00;98406.88;4195421;28;20493;-76
2023/02/22 07:25:30;;;;;;;35.33;12.18;;;;;;;1.73;100.00;98401.91;4196815;28;20052;-76
2023/02/22 07:27:30;;;;;;;60.38;10.05;;;;;;;1.78;100.00;98401.75;4190777;28;20045;-77
2023/02/22 07:29:31;;;;;;;33.70;6.03;;;;;;;1.87;100.00;98407.19;4192051;28;20546;-76
2023/02/22 07:31:35;;;;;;;10.65;5.13;;;;;;;1.88;100.00;98414.25;4192785;28;20080;-76
2023/02/22 07:33:36;;;;;;;12.70;4.78;;;;;;;1.91;100.00;98410.88;4189036;28;20059;-76
2023/02/22 07:35:37;;;;;;;8.90;4.55;;;;;;;1.93;100.00;98412.16;4194610;28;20044;-76
2023/02/22 07:37:38;;;;;;;7.30;4.53;;;;;;;1.97;100.00;98412.31;4191594;28;20147;-76
2023/02/22 07:39:40;;;;;;;7.95;4.50;;;;;;;2.00;100.00;98406.22;4191468;28;20095;-76
2023/02/22 07:41:41;;;;;;;11.13;5.57;;;;;;;2.07;100.00;98403.81;4192198;28;20052;-76
2023/02/22 07:43:42;;;;;;;10.10;5.05;;;;;;;2.11;100.00;98401.22;4189967;28;20029;-76
2023/02/22 07:45:46;;;;;;;15.40;6.10;;;;;;;2.18;100.00;98399.59;4197464;28;20523;-76
2023/02/22 07:47:47;;;;;;;10.10;5.07;;;;;;;2.27;100.00;98399.56;4191550;28;20036;-76
2023/02/22 07:49:47;;;;;;;13.38;5.15;;;;;;;2.32;100.00;98404.88;4192309;28;20053;-76
2023/02/22 07:51:48;;;;;;;8.50;5.05;;;;;;;2.37;100.00;98406.63;4191899;28;20036;-76
2023/02/22 07:53:48;;;;;;;8.68;5.10;;;;;;;2.45;100.00;98406.59;4191261;28;20056;-76
2023/02/22 07:55:49;;;;;;;8.27;4.82;;;;;;;2.51;100.00;98401.75;4192093;28;20056;-76
2023/02/22 07:57:51;;;;;;;9.55;5.13;;;;;;;2.58;100.00;98410.25;4190756;28;20476;-76
2023/02/22 07:59:52;;;;;;;9.13;5.95;;;;;;;2.63;100.00;98396.41;4191427;28;20123;-76
2023/02/22 08:01:52;;;;;;;10.05;4.68;;;;;;;2.72;100.00;98408.09;4191969;28;20044;-76
2023/02/22 08:03:53;;;;;;;7.70;4.93;;;;;;;2.78;100.00;98408.72;4196954;28;20500;-76
2023/02/22 08:05:56;;;;;;;9.02;5.32;;;;;;;2.83;100.00;98402.28;4191907;28;20143;-76
2023/02/22 08:07:56;;;;;;;9.30;5.38;;;;;;;2.94;100.00;98400.75;4191932;28;20060;-76
2023/02/22 08:09:57;;;;;;;12.20;5.82;;;;;;;3.03;100.00;98390.59;4190804;28;20119;-76
2023/02/22 08:11:57;;;;;;;11.15;6.15;;;;;;;3.14;100.00;98393.72;4190194;28;20091;-76
2023/02/22 08:13:57;;;;;;;10.52;5.90;;;;;;;3.21;100.00;98389.34;4192746;28;20081;-76
2023/02/22 08:15:58;;;;;;;12.13;6.45;;;;;;;3.30;100.00;98397.47;4196094;28;20033;-76
2023/02/22 08:17:59;;;;;;;11.20;6.30;;;;;;;3.35;100.00;98389.09;4198608;28;20576;-76
2023/02/22 08:20:00;;;;;;;10.10;6.47;;;;;;;3.42;100.00;98394.84;4196330;28;20036;-76
2023/02/22 08:22:00;;;;;;;10.70;6.78;;;;;;;3.51;100.00;98394.78;4191698;28;20397;-76
2023/02/22 08:24:01;;;;;;;9.95;5.80;;;;;;;3.55;100.00;98390.22;4191764;28;20310;-76
2023/02/22 08:26:09;;;;;;;12.48;6.40;;;;;;;3.58;100.00;98387.63;4186666;28;20029;-76
2023/02/22 08:28:13;;;;;;;11.88;6.75;;;;;;;3.71;100.00;98393.97;4190462;28;20110;-76
2023/02/22 08:30:18;;;;;;;15.13;7.05;;;;;;;3.80;100.00;98388.41;4193203;28;20177;-76
2023/02/22 08:32:19;;;;;;;18.15;7.97;;;;;;;3.86;100.00;98390.59;4190930;28;20070;-77
2023/02/22 08:34:19;;;;;;;12.15;7.15;;;;;;;3.90;100.00;98379.81;4195480;28;20456;-76
2023/02/22 08:36:20;;;;;;;9.20;6.35;;;;;;;4.00;100.00;98386.78;4191536;28;20047;-76
2023/02/22 08:38:25;;;;;;;11.48;6.40;;;;;;;4.06;100.00;98383.50;4197122;28;20229;-77
2023/02/22 08:40:29;;;;;;;12.23;6.82;;;;;;;4.12;100.00;98382.16;4191027;28;20049;-76
2023/02/22 08:42:30;;;;;;;11.88;6.07;;;;;;;4.19;100.00;98385.13;4192530;28;20057;-77
2023/02/22 08:44:30;;;;;;;12.63;6.72;;;;;;;4.30;100.00;98377.28;4190750;28;20222;-77
2023/02/22 08:46:30;;;;;;;13.18;6.90;;;;;;;4.40;100.00;98381.53;4189470;28;20048;-77
2023/02/22 08:48:31;;;;;;;10.95;6.65;;;;;;;4.44;100.00;98375.03;4192208;28;20103;-76
2023/02/22 08:50:35;;;;;;;18.33;6.78;;;;;;;4.50;100.00;98373.69;4189887;28;20257;-77
2023/02/22 08:52:35;;;;;;;14.60;7.28;;;;;;;4.56;100.00;98381.69;4196994;28;20044;-77
2023/02/22 08:54:35;;;;;;;12.30;6.85;;;;;;;4.60;100.00;98369.69;4192374;28;20373;-77
2023/02/22 08:56:36;;;;;;;11.40;7.45;;;;;;;4.71;100.00;98381.78;4190379;28;20392;-76
2023/02/22 08:58:36;;;;;;;10.63;6.78;;;;;;;4.76;100.00;98381.56;4191539;28;20384;-77
2023/02/22 09:00:38;;;;;;;10.70;6.15;;;;;;;4.86;100.00;98374.03;4195424;28;20151;-77
2023/02/22 09:02:39;;;;;;;18.58;7.15;;;;;;;4.93;100.00;98372.34;4191173;28;20342;-77
2023/02/22 09:04:40;;;;;;;11.32;6.47;;;;;;;4.99;100.00;98361.94;4192755;28;20481;-77
2023/02/22 09:06:42;;;;;;;10.30;5.95;;;;;;;5.11;100.00;98370.13;4189185;28;20083;-77
2023/02/22 09:08:43;;;;;;;10.70;6.38;;;;;;;5.19;100.00;98366.47;4190994;28;20094;-77
2023/02/22 09:10:44;;;;;;;11.30;6.68;;;;;;;5.32;100.00;98372.75;4191144;28;20044;-77
2023/02/22 09:12:44;;;;;;;12.88;6.05;;;;;;;5.41;100.00;98365.19;4191590;28;20041;-77
2023/02/22 09:14:44;;;;;;;9.65;6.10;;;;;;;5.47;100.00;98372.03;4196859;28;20041;-77
2023/02/22 09:16:45;;;;;;;15.60;6.75;;;;;;;5.56;100.00;98369.97;4191102;28;20036;-77
2023/02/22 09:18:46;;;;;;;9.95;6.05;;;;;;;5.62;100.00;98374.03;4189399;28;20049;-76
2023/02/22 09:20:46;;;;;;;10.50;6.50;;;;;;;5.72;100.00;98366.47;4189460;28;20142;-77
2023/02/22 09:22:48;;;;;;;13.38;8.18;;;;;;;5.80;100.00;98368.28;4189668;28;20048;-77
2023/02/22 09:24:48;;;;;;;14.35;8.15;;;;;;;5.88;100.00;98356.34;4190824;28;20050;-77
2023/02/22 09:26:53;;;;;;;13.27;7.07;;;;;;;5.96;100.00;98360.94;4189948;28;20474;-77
2023/02/22 09:28:53;;;;;;;8.85;6.05;;;;;;;6.07;100.00;98359.25;4193421;28;20040;-77
2023/02/22 09:30:53;;;;;;;13.45;6.05;;;;;;;6.14;100.00;98359.47;4190178;28;20041;-77
2023/02/22 09:32:56;;;;;;;9.38;5.72;;;;;;;6.16;100.00;98359.91;4195713;28;20044;-77
2023/02/22 09:34:57;;;;;;;11.60;6.70;;;;;;;6.27;100.00;98354.69;4192013;28;20496;-77